createdAt,value
2023-02-05T00:01:28.615Z,1.00
2023-02-05T00:03:55.505Z,1.00
2023-02-05T00:06:22.495Z,1.00
2023-02-05T00:08:49.385Z,1.00
2023-02-05T00:11:16.189Z,1.00
2023-02-05T00:13:43.277Z,1.00
2023-02-05T00:16:11.785Z,1.00
2023-02-05T00:18:38.646Z,1.00
2023-02-05T00:21:06.057Z,1.00
2023-02-05T00:23:33.939Z,1.00
2023-02-05T00:26:00.963Z,1.00
2023-02-05T00:28:27.735Z,1.00
2023-02-05T00:30:55.714Z,1.00
2023-02-05T00:33:22.528Z,1.00
2023-02-05T00:35:49.733Z,99.90
2023-02-05T00:38:16.750Z,99.90
2023-02-05T00:40:43.648Z,99.90
2023-02-05T00:43:10.470Z,99.90
2023-02-05T00:45:37.340Z,99.90
2023-02-05T00:48:05.202Z,99.90
2023-02-05T00:50:33.067Z,99.90
2023-02-05T00:52:59.918Z,99.90
2023-02-05T00:55:26.995Z,99.90
2023-02-05T00:57:54.345Z,99.90
2023-02-05T01:00:21.177Z,99.90
2023-02-05T01:02:48.035Z,99.90
2023-02-05T01:05:14.855Z,1.00
2023-02-05T01:07:43.084Z,1.00
2023-02-05T01:10:10.117Z,1.00
2023-02-05T01:12:37.057Z,1.00
2023-02-05T01:15:06.450Z,1.00
2023-02-05T01:17:33.300Z,1.00
2023-02-05T01:20:00.160Z,1.00
2023-02-05T01:22:26.988Z,1.00
2023-02-05T01:24:53.886Z,1.00
2023-02-05T01:27:20.747Z,1.00
2023-02-05T01:29:47.615Z,1.00
2023-02-05T01:32:14.498Z,1.00
2023-02-05T01:34:41.260Z,1.00
2023-02-05T01:37:08.091Z,1.00
2023-02-05T01:39:36.351Z,1.00
2023-02-05T01:42:27.854Z,99.90
2023-02-05T01:45:22.607Z,99.90
2023-02-05T01:47:53.317Z,99.90
2023-02-05T01:50:25.365Z,99.90
2023-02-05T01:52:52.716Z,1.00
2023-02-05T01:55:20.181Z,1.00
2023-02-05T01:57:47.711Z,1.00
2023-02-05T02:00:14.956Z,1.00
2023-02-05T02:02:42.134Z,1.00
2023-02-05T02:05:11.505Z,1.00
2023-02-05T02:07:38.415Z,99.90
2023-02-05T02:10:06.107Z,99.90
2023-02-05T02:12:38.367Z,1.00
2023-02-05T02:15:09.458Z,1.00
2023-02-05T02:17:40.631Z,1.00
2023-02-05T02:20:11.046Z,99.90
2023-02-05T02:22:56.175Z,99.90
2023-02-05T02:25:44.352Z,99.90
2023-02-05T02:28:19.743Z,99.90
2023-02-05T02:30:54.345Z,99.90
2023-02-05T02:33:33.415Z,99.90
2023-02-05T02:36:19.092Z,99.90
2023-02-05T02:39:03.666Z,99.90
2023-02-05T02:41:40.360Z,99.90
2023-02-05T02:44:12.185Z,99.90
2023-02-05T02:46:42.903Z,63.50
2023-02-05T02:49:14.540Z,99.90
2023-02-05T02:51:42.430Z,19.60
2023-02-05T02:54:14.053Z,99.90
2023-02-05T02:56:41.646Z,99.90
2023-02-05T02:59:18.309Z,99.90
2023-02-05T03:01:53.631Z,62.40
2023-02-05T03:04:41.894Z,99.90
2023-02-05T03:07:16.189Z,99.90
2023-02-05T03:09:44.244Z,65.90
2023-02-05T03:12:11.090Z,77.30
2023-02-05T03:14:38.632Z,99.90
2023-02-05T03:17:05.447Z,1.00
2023-02-05T03:19:32.626Z,36.70
2023-02-05T03:22:02.944Z,41.90
2023-02-05T03:24:31.373Z,99.90
2023-02-05T03:26:58.209Z,22.90
2023-02-05T03:29:28.734Z,99.90
2023-02-05T03:32:32.432Z,42.00
2023-02-05T03:35:29.037Z,71.40
2023-02-05T03:38:11.559Z,99.90
2023-02-05T03:40:41.836Z,99.90
2023-02-05T03:43:13.489Z,99.90
2023-02-05T03:45:46.357Z,99.90
2023-02-05T03:48:17.647Z,99.90
2023-02-05T03:50:53.570Z,99.90
2023-02-05T03:53:28.082Z,99.90
2023-02-05T03:56:04.975Z,99.90
2023-02-05T03:58:43.801Z,99.90
2023-02-05T04:01:11.843Z,99.90
2023-02-05T04:03:38.829Z,99.90
2023-02-05T04:06:06.360Z,1.00
2023-02-05T04:08:33.219Z,1.00
2023-02-05T04:10:59.985Z,1.00
2023-02-05T04:13:26.868Z,1.00
2023-02-05T04:15:53.602Z,1.00
2023-02-05T04:18:20.435Z,1.00
2023-02-05T04:20:47.294Z,1.00
2023-02-05T04:23:14.044Z,1.00
2023-02-05T04:25:40.895Z,1.00
2023-02-05T04:28:10.238Z,1.00
2023-02-05T04:30:37.121Z,99.90
2023-02-05T04:33:03.938Z,99.90
2023-02-05T04:35:30.726Z,99.90
2023-02-05T04:37:57.427Z,99.90
2023-02-05T04:40:24.184Z,99.90
2023-02-05T04:42:50.956Z,1.00
2023-02-05T04:45:18.036Z,1.00
2023-02-05T04:47:44.840Z,1.00
2023-02-05T04:50:11.679Z,1.00
2023-02-05T04:52:38.489Z,1.00
2023-02-05T04:55:05.755Z,24.10
2023-02-05T04:57:32.565Z,98.90
2023-02-05T04:59:59.315Z,99.90
2023-02-05T05:02:26.148Z,99.90
2023-02-05T05:04:52.946Z,99.90
2023-02-05T05:07:19.985Z,99.90
2023-02-05T05:09:46.795Z,99.90
2023-02-05T05:12:13.668Z,99.90
2023-02-05T05:14:40.519Z,99.90
2023-02-05T05:17:07.381Z,99.90
2023-02-05T05:19:34.260Z,99.90
2023-02-05T05:22:01.094Z,99.90
2023-02-05T05:24:27.976Z,99.90
2023-02-05T05:26:54.782Z,99.90
2023-02-05T05:29:21.553Z,99.90
2023-02-05T05:31:48.381Z,99.90
2023-02-05T05:34:15.379Z,99.90
2023-02-05T05:36:43.706Z,99.90
2023-02-05T05:39:29.491Z,99.90
2023-02-05T05:42:14.743Z,99.90
2023-02-05T05:44:41.558Z,99.90
2023-02-05T05:47:08.379Z,99.90
2023-02-05T05:49:35.292Z,99.90
2023-02-05T05:52:02.060Z,99.90
2023-02-05T05:54:28.848Z,99.90
2023-02-05T05:56:55.618Z,99.90
2023-02-05T05:59:22.352Z,99.90
2023-02-05T06:01:49.132Z,99.90
2023-02-05T06:04:15.948Z,99.90
2023-02-05T06:06:42.781Z,99.90
2023-02-05T06:09:09.917Z,99.90
2023-02-05T06:11:36.742Z,99.90
2023-02-05T06:14:03.550Z,57.90
2023-02-05T06:16:30.563Z,12.30
2023-02-05T06:18:57.335Z,1.00
2023-02-05T06:21:24.060Z,1.00
2023-02-05T06:23:50.895Z,1.00
2023-02-05T06:26:17.704Z,1.00
2023-02-05T06:28:44.464Z,1.00
2023-02-05T06:31:12.014Z,99.90
2023-02-05T06:33:38.910Z,99.90
2023-02-05T06:36:06.341Z,99.90
2023-02-05T06:38:33.183Z,99.90
2023-02-05T06:40:59.964Z,96.90
2023-02-05T06:43:27.076Z,1.00
2023-02-05T06:45:53.947Z,1.00
2023-02-05T06:48:20.738Z,1.00
2023-02-05T06:50:47.599Z,1.00
2023-02-05T06:53:14.507Z,1.00
2023-02-05T06:55:41.274Z,1.00
2023-02-05T06:58:08.166Z,1.00
2023-02-05T07:00:35.671Z,1.00
2023-02-05T07:03:02.501Z,1.00
2023-02-05T07:05:29.387Z,1.00
2023-02-05T07:07:56.229Z,1.00
2023-02-05T07:10:23.005Z,1.00
2023-02-05T07:12:49.780Z,1.00
2023-02-05T07:15:16.657Z,1.00
2023-02-05T07:17:43.497Z,99.90
2023-02-05T07:20:10.821Z,99.90
2023-02-05T07:22:37.607Z,99.90
2023-02-05T07:25:04.966Z,99.90
2023-02-05T07:27:31.868Z,99.90
2023-02-05T07:29:59.488Z,99.90
2023-02-05T07:32:26.357Z,99.90
2023-02-05T07:34:53.466Z,99.90
2023-02-05T07:37:21.477Z,99.90
2023-02-05T07:39:48.715Z,99.90
2023-02-05T07:42:15.506Z,99.90
2023-02-05T07:44:42.336Z,99.90
2023-02-05T07:47:09.175Z,99.90
2023-02-05T07:49:36.044Z,99.90
2023-02-05T07:52:03.090Z,99.90
2023-02-05T07:54:29.984Z,99.90
2023-02-05T07:56:56.825Z,99.90
2023-02-05T07:59:23.750Z,99.90
2023-02-05T08:01:50.527Z,99.90
2023-02-05T08:04:17.456Z,99.90
2023-02-05T08:06:44.441Z,99.90
2023-02-05T08:09:11.662Z,99.90
2023-02-05T08:11:38.478Z,93.70
2023-02-05T08:14:05.298Z,99.90
2023-02-05T08:16:32.146Z,90.90
2023-02-05T08:18:58.928Z,28.00
2023-02-05T08:21:25.733Z,12.90
2023-02-05T08:23:52.641Z,30.60
2023-02-05T08:26:19.862Z,99.90
2023-02-05T08:28:46.731Z,99.90
2023-02-05T08:31:18.309Z,99.90
2023-02-05T08:33:46.809Z,68.40
2023-02-05T08:36:13.657Z,32.00
2023-02-05T08:38:40.447Z,22.20
2023-02-05T08:41:15.002Z,65.60
2023-02-05T08:43:47.414Z,99.90
2023-02-05T08:46:17.687Z,79.10
2023-02-05T08:48:44.770Z,15.40
2023-02-05T08:51:13.736Z,8.90
2023-02-05T08:53:40.974Z,1.00
2023-02-05T08:56:10.583Z,32.90
2023-02-05T08:58:38.590Z,96.70
2023-02-05T09:01:11.185Z,99.90
2023-02-05T09:03:38.223Z,99.90
2023-02-05T09:06:07.172Z,99.90
2023-02-05T09:08:34.057Z,99.90
2023-02-05T09:11:01.278Z,99.90
2023-02-05T09:13:28.915Z,99.90
2023-02-05T09:15:55.786Z,99.90
2023-02-05T09:18:22.794Z,99.90
2023-02-05T09:20:51.415Z,99.90
2023-02-05T09:23:19.348Z,99.90
2023-02-05T09:25:46.387Z,22.80
2023-02-05T09:28:14.016Z,1.00
2023-02-05T09:30:45.854Z,1.00
2023-02-05T09:33:13.952Z,1.00
2023-02-05T09:35:41.389Z,1.00
2023-02-05T09:38:08.715Z,21.30
2023-02-05T09:40:59.569Z,1.00
2023-02-05T09:43:38.665Z,1.00
2023-02-05T09:46:12.636Z,1.00
2023-02-05T09:49:09.506Z,1.00
2023-02-05T09:51:41.194Z,1.00
2023-02-05T09:54:26.329Z,99.90
2023-02-05T09:56:57.779Z,99.90
2023-02-05T09:59:26.868Z,99.90
2023-02-05T10:01:57.684Z,99.90
2023-02-05T10:04:26.233Z,99.90
2023-02-05T10:07:14.858Z,99.90
2023-02-05T10:10:11.568Z,99.90
2023-02-05T10:12:57.227Z,99.90
2023-02-05T10:16:20.799Z,99.90
2023-02-05T10:19:14.465Z,99.90
2023-02-05T10:21:56.217Z,99.90
2023-02-05T10:24:23.002Z,99.90
2023-02-05T10:27:04.104Z,99.90
2023-02-05T10:29:58.374Z,97.40
2023-02-05T10:32:41.277Z,24.70
2023-02-05T10:35:23.952Z,34.20
2023-02-05T10:37:57.592Z,99.90
2023-02-05T10:40:30.135Z,60.80
2023-02-05T10:43:22.903Z,1.00
2023-02-05T10:45:49.954Z,25.10
2023-02-05T10:48:28.899Z,1.00
2023-02-05T10:51:01.614Z,1.00
2023-02-05T10:53:30.326Z,1.00
2023-02-05T10:55:58.680Z,1.00
2023-02-05T10:58:43.938Z,1.00
2023-02-05T11:01:35.792Z,1.00
2023-02-05T11:04:25.759Z,1.00
2023-02-05T11:06:54.413Z,1.00
2023-02-05T11:09:24.309Z,1.00
2023-02-05T11:11:53.254Z,99.90
2023-02-05T11:14:48.619Z,99.90
2023-02-05T11:17:22.617Z,99.90
2023-02-05T11:19:58.382Z,99.90
2023-02-05T11:22:29.435Z,99.90
2023-02-05T11:25:11.012Z,99.90
2023-02-05T11:27:39.229Z,99.90
2023-02-05T11:30:42.111Z,99.90
2023-02-05T11:33:22.446Z,99.90
2023-02-05T11:35:52.512Z,99.90
2023-02-05T11:38:47.402Z,99.90
2023-02-05T11:41:27.054Z,23.50
2023-02-05T11:43:55.005Z,1.00
2023-02-05T11:46:24.252Z,1.00
2023-02-05T11:49:01.061Z,1.00
2023-02-05T11:51:37.289Z,1.00
2023-02-05T11:54:11.830Z,1.00
2023-02-05T11:56:38.621Z,1.00
2023-02-05T11:59:14.429Z,1.00
2023-02-05T12:01:43.336Z,1.00
2023-02-05T12:04:13.291Z,1.00
2023-02-05T12:06:46.492Z,1.00
2023-02-05T12:09:19.804Z,1.00
2023-02-05T12:12:03.623Z,99.90
2023-02-05T12:15:02.832Z,99.90
2023-02-05T12:17:39.919Z,99.90
2023-02-05T12:20:24.176Z,99.90
2023-02-05T12:23:22.117Z,99.90
2023-02-05T12:26:07.687Z,99.90
2023-02-05T12:28:40.419Z,99.90
2023-02-05T12:31:57.631Z,48.30
2023-02-05T12:34:53.580Z,1.00
2023-02-05T12:37:55.703Z,55.80
2023-02-05T12:40:45.147Z,41.10
2023-02-05T12:43:33.548Z,99.90
2023-02-05T12:46:18.204Z,81.20
2023-02-05T12:49:09.407Z,1.70
2023-02-05T12:51:51.350Z,1.00
2023-02-05T12:54:30.960Z,1.00
2023-02-05T12:57:24.949Z,1.00
2023-02-05T13:00:05.754Z,1.00
2023-02-05T13:02:54.136Z,1.00
2023-02-05T13:05:27.076Z,1.00
2023-02-05T13:08:01.595Z,1.00
2023-02-05T13:10:36.363Z,1.00
2023-02-05T13:13:06.991Z,1.00
2023-02-05T13:15:41.884Z,1.00
2023-02-05T13:18:19.333Z,1.00
2023-02-05T13:21:23.853Z,1.00
2023-02-05T13:24:18.197Z,1.00
2023-02-05T13:27:05.075Z,1.00
2023-02-05T13:29:38.286Z,99.90
2023-02-05T13:32:15.914Z,99.90
2023-02-05T13:34:43.464Z,99.90
2023-02-05T13:37:19.494Z,99.90
2023-02-05T13:39:54.346Z,99.90
2023-02-05T13:42:36.227Z,99.90
2023-02-05T13:45:31.001Z,99.90
2023-02-05T13:48:48.978Z,99.90
2023-02-05T13:51:31.212Z,99.90
2023-02-05T13:54:28.169Z,99.90
2023-02-05T13:57:10.226Z,99.90
2023-02-05T13:59:43.540Z,99.90
2023-02-05T14:02:34.182Z,99.90
2023-02-05T14:05:02.076Z,99.90
2023-02-05T14:07:35.338Z,99.90
2023-02-05T14:10:02.725Z,99.90
2023-02-05T14:12:31.334Z,99.90
2023-02-05T14:15:20.096Z,99.90
2023-02-05T14:17:46.912Z,99.90
2023-02-05T14:20:25.948Z,99.90
2023-02-05T14:23:03.536Z,99.90
2023-02-05T14:25:36.977Z,99.90
2023-02-05T14:28:13.124Z,99.90
2023-02-05T14:31:18.625Z,99.90
2023-02-05T14:33:45.623Z,99.90
2023-02-05T14:36:15.859Z,99.90
2023-02-05T14:39:07.049Z,99.90
2023-02-05T14:41:46.806Z,99.90
2023-02-05T14:44:15.920Z,99.90
2023-02-05T14:46:56.547Z,99.90
2023-02-05T14:49:34.032Z,99.90
2023-02-05T14:52:03.314Z,99.90
2023-02-05T14:55:14.931Z,99.90
2023-02-05T14:57:56.766Z,99.90
2023-02-05T15:00:35.725Z,99.90
2023-02-05T15:03:05.485Z,99.90
2023-02-05T15:05:44.511Z,99.90
2023-02-05T15:08:40.505Z,99.90
2023-02-05T15:11:13.492Z,99.90
2023-02-05T15:13:41.133Z,99.90
2023-02-05T15:16:10.964Z,99.90
2023-02-05T15:18:51.314Z,99.90
2023-02-05T15:21:21.049Z,99.90
2023-02-05T15:23:52.907Z,99.90
2023-02-05T15:26:24.631Z,99.90
2023-02-05T15:29:02.073Z,99.90
2023-02-05T15:31:47.216Z,99.90
2023-02-05T15:34:34.601Z,99.90
2023-02-05T15:37:12.086Z,99.90
2023-02-05T15:39:55.006Z,99.90
2023-02-05T15:42:35.440Z,99.90
2023-02-05T15:45:24.204Z,99.90
2023-02-05T15:48:19.256Z,99.90
2023-02-05T15:51:31.821Z,99.90
2023-02-05T15:54:01.085Z,99.90
2023-02-05T15:56:29.788Z,99.90
2023-02-05T15:59:00.489Z,99.90
2023-02-05T16:01:33.526Z,99.90
2023-02-05T16:04:00.730Z,99.90
2023-02-05T16:06:29.449Z,99.90
2023-02-05T16:08:57.605Z,99.90
2023-02-05T16:11:32.949Z,99.90
2023-02-05T16:14:10.931Z,99.90
2023-02-05T16:16:40.740Z,99.90
2023-02-05T16:19:14.670Z,99.90
2023-02-05T16:21:46.730Z,99.90
2023-02-05T16:24:34.225Z,99.90
2023-02-05T16:27:09.819Z,99.90
2023-02-05T16:29:47.897Z,99.90
2023-02-05T16:32:27.765Z,99.90
2023-02-05T16:34:56.454Z,99.90
2023-02-05T16:37:25.878Z,99.90
2023-02-05T16:39:54.473Z,99.90
2023-02-05T16:42:31.771Z,99.90
2023-02-05T16:45:07.888Z,99.90
2023-02-05T16:47:39.090Z,99.90
2023-02-05T16:50:43.548Z,99.90
2023-02-05T16:53:35.054Z,99.90
2023-02-05T16:56:14.026Z,99.90
2023-02-05T16:58:45.832Z,99.90
2023-02-05T17:01:14.039Z,99.90
2023-02-05T17:03:41.721Z,1.00
2023-02-05T17:06:14.833Z,1.00
2023-02-05T17:08:42.317Z,1.00
2023-02-05T17:11:32.900Z,1.00
2023-02-05T17:14:32.698Z,1.00
2023-02-05T17:17:01.474Z,1.00
2023-02-05T17:19:29.641Z,1.00
2023-02-05T17:22:14.951Z,1.00
2023-02-05T17:24:42.840Z,1.00
2023-02-05T17:27:17.394Z,1.00
2023-02-05T17:29:44.356Z,1.00
2023-02-05T17:32:19.212Z,1.00
2023-02-05T17:34:46.630Z,1.00
2023-02-05T17:37:13.951Z,1.00
2023-02-05T17:39:41.149Z,1.00
2023-02-05T17:42:21.122Z,1.00
2023-02-05T17:44:48.162Z,1.00
2023-02-05T17:47:15.141Z,1.00
2023-02-05T17:49:44.222Z,1.00
2023-02-05T17:52:11.297Z,1.00
2023-02-05T17:54:38.469Z,1.00
2023-02-05T17:57:15.698Z,1.00
2023-02-05T17:59:44.890Z,1.00
2023-02-05T18:02:12.986Z,1.00
2023-02-05T18:04:40.798Z,1.00
2023-02-05T18:07:20.413Z,1.00
2023-02-05T18:09:47.313Z,1.00
2023-02-05T18:12:14.126Z,1.00
2023-02-05T18:14:40.960Z,1.00
2023-02-05T18:17:07.791Z,1.00
2023-02-05T18:19:35.910Z,1.00
2023-02-05T18:22:02.744Z,1.00
2023-02-05T18:24:29.699Z,21.60
2023-02-05T18:26:57.056Z,13.80
2023-02-05T18:29:23.979Z,26.40
2023-02-05T18:31:50.782Z,58.40
2023-02-05T18:34:17.595Z,80.50
2023-02-05T18:36:44.406Z,99.90
2023-02-05T18:39:11.205Z,99.90
2023-02-05T18:41:38.939Z,99.90
2023-02-05T18:44:05.747Z,99.90
2023-02-05T18:46:32.612Z,99.90
2023-02-05T18:48:59.449Z,99.90
2023-02-05T18:51:26.619Z,99.90
2023-02-05T18:53:54.102Z,99.90
2023-02-05T18:56:26.335Z,99.90
2023-02-05T18:59:03.198Z,99.90
2023-02-05T19:01:31.397Z,99.90
2023-02-05T19:04:07.474Z,99.90
2023-02-05T19:06:34.442Z,99.90
2023-02-05T19:09:02.190Z,99.90
2023-02-05T19:11:30.296Z,99.90
2023-02-05T19:13:59.285Z,99.90
2023-02-05T19:16:27.610Z,99.90
2023-02-05T19:18:54.770Z,99.90
2023-02-05T19:21:22.482Z,99.90
2023-02-05T19:23:54.149Z,99.90
2023-02-05T19:26:23.263Z,99.90
2023-02-05T19:29:00.928Z,99.90
2023-02-05T19:31:29.800Z,99.90
2023-02-05T19:33:58.572Z,99.90
2023-02-05T19:36:25.853Z,1.00
2023-02-05T19:38:53.572Z,1.00
2023-02-05T19:41:26.767Z,1.00
2023-02-05T19:43:58.908Z,1.00
2023-02-05T19:46:31.644Z,1.00
2023-02-05T19:49:06.488Z,1.00
2023-02-05T19:51:34.393Z,1.00
2023-02-05T19:54:05.005Z,1.00
2023-02-05T19:56:35.583Z,1.00
2023-02-05T19:59:02.413Z,1.00
2023-02-05T20:01:31.682Z,1.00
2023-02-05T20:04:00.680Z,1.00
2023-02-05T20:06:29.262Z,1.00
2023-02-05T20:08:56.143Z,1.00
2023-02-05T20:11:23.293Z,1.00
2023-02-05T20:13:50.436Z,1.00
2023-02-05T20:16:19.252Z,1.00
2023-02-05T20:18:47.729Z,1.00
2023-02-05T20:21:18.831Z,1.00
2023-02-05T20:23:47.274Z,1.00
2023-02-05T20:26:14.614Z,1.00
2023-02-05T20:29:01.558Z,1.00
2023-02-05T20:31:35.402Z,1.00
2023-02-05T20:34:03.510Z,1.00
2023-02-05T20:36:31.890Z,1.00
2023-02-05T20:38:59.920Z,1.00
2023-02-05T20:41:27.044Z,1.00
2023-02-05T20:43:53.962Z,1.00
2023-02-05T20:46:21.029Z,1.00
2023-02-05T20:48:48.517Z,1.00
2023-02-05T20:51:17.538Z,1.00
2023-02-05T20:53:45.099Z,1.00
2023-02-05T20:56:14.640Z,1.00
2023-02-05T20:58:41.904Z,1.00
2023-02-05T21:01:13.655Z,1.00
2023-02-05T21:03:43.325Z,1.00
2023-02-05T21:06:10.400Z,1.00
2023-02-05T21:08:41.983Z,1.00
2023-02-05T21:11:09.303Z,1.00
2023-02-05T21:13:36.221Z,1.00
2023-02-05T21:16:04.410Z,1.00
2023-02-05T21:18:31.786Z,1.00
2023-02-05T21:21:07.353Z,1.00
2023-02-05T21:23:34.344Z,1.00
2023-02-05T21:26:01.561Z,1.00
2023-02-05T21:28:28.591Z,1.00
2023-02-05T21:31:06.838Z,1.00
2023-02-05T21:33:34.228Z,1.00
2023-02-05T21:36:09.432Z,1.00
2023-02-05T21:38:37.817Z,1.00
2023-02-05T21:41:16.053Z,1.00
2023-02-05T21:43:43.401Z,1.00
2023-02-05T21:46:12.530Z,1.00
2023-02-05T21:48:39.953Z,1.00
2023-02-05T21:51:12.124Z,1.00
2023-02-05T21:53:39.333Z,29.90
2023-02-05T21:56:11.084Z,95.30
2023-02-05T21:58:39.463Z,99.90
2023-02-05T22:01:15.334Z,99.90
2023-02-05T22:03:43.844Z,99.90
2023-02-05T22:06:10.688Z,99.90
2023-02-05T22:08:38.938Z,99.90
2023-02-05T22:11:11.133Z,99.90
2023-02-05T22:13:39.745Z,99.90
2023-02-05T22:16:09.076Z,99.90
2023-02-05T22:18:36.790Z,99.90
2023-02-05T22:21:07.943Z,30.00
2023-02-05T22:23:35.240Z,43.20
2023-02-05T22:26:02.172Z,29.70
2023-02-05T22:28:30.521Z,61.00
2023-02-05T22:31:05.847Z,35.50
2023-02-05T22:33:34.295Z,29.60
2023-02-05T22:36:01.269Z,59.80
2023-02-05T22:38:38.887Z,99.90
2023-02-05T22:41:23.495Z,99.90
2023-02-05T22:43:55.040Z,99.90
2023-02-05T22:46:24.100Z,29.00
2023-02-05T22:48:56.263Z,9.80
2023-02-05T22:51:28.887Z,73.10
2023-02-05T22:53:56.541Z,99.90
2023-02-05T22:56:23.814Z,99.90
2023-02-05T22:58:51.600Z,99.90
2023-02-05T23:01:20.282Z,99.90
2023-02-05T23:03:50.985Z,99.90
2023-02-05T23:06:29.524Z,32.20
2023-02-05T23:09:16.881Z,37.60
2023-02-05T23:11:44.719Z,30.00
2023-02-05T23:14:12.317Z,99.90
2023-02-05T23:16:41.334Z,99.90
2023-02-05T23:19:11.484Z,99.90
2023-02-05T23:21:39.904Z,99.90
2023-02-05T23:24:07.737Z,1.00
2023-02-05T23:26:39.820Z,1.00
2023-02-05T23:29:06.959Z,1.00
2023-02-05T23:31:33.957Z,1.00
2023-02-05T23:34:00.969Z,99.90
2023-02-05T23:36:27.901Z,99.90
2023-02-05T23:38:54.825Z,99.90
2023-02-05T23:41:37.044Z,99.90
2023-02-05T23:44:05.068Z,99.90
2023-02-05T23:46:32.263Z,99.90
2023-02-05T23:48:59.355Z,99.90
2023-02-05T23:51:26.188Z,99.90
2023-02-05T23:53:53.040Z,99.90
2023-02-05T23:56:19.898Z,99.90
2023-02-05T23:58:46.647Z,99.90
